createdAt,value
2022-09-27T00:02:43.489Z,11.08
2022-09-27T00:05:23.582Z,11.06
2022-09-27T00:08:00.301Z,11.10
2022-09-27T00:10:39.365Z,11.05
2022-09-27T00:13:15.928Z,10.99
2022-09-27T00:16:02.312Z,10.97
2022-09-27T00:18:41.640Z,10.94
2022-09-27T00:21:22.300Z,10.92
2022-09-27T00:23:58.056Z,10.93
2022-09-27T00:26:37.919Z,10.90
2022-09-27T00:29:11.299Z,10.92
2022-09-27T00:31:53.518Z,10.90
2022-09-27T00:34:29.754Z,10.92
2022-09-27T00:37:16.706Z,10.92
2022-09-27T00:39:51.995Z,10.82
2022-09-27T00:42:29.722Z,10.90
2022-09-27T00:45:26.763Z,10.90
2022-09-27T00:48:16.609Z,10.90
2022-09-27T00:51:06.277Z,10.91
2022-09-27T00:53:48.562Z,10.91
2022-09-27T00:56:38.500Z,10.98
2022-09-27T00:59:26.000Z,11.00
2022-09-27T01:01:56.218Z,10.95
2022-09-27T01:04:35.867Z,10.94
2022-09-27T01:07:10.978Z,10.97
2022-09-27T01:09:47.878Z,11.02
2022-09-27T01:12:45.027Z,11.00
2022-09-27T01:16:07.498Z,10.98
2022-09-27T01:19:13.889Z,10.93
2022-09-27T01:22:07.058Z,10.95
2022-09-27T01:25:07.073Z,10.95
2022-09-27T01:28:12.621Z,10.98
2022-09-27T01:31:04.360Z,10.94
2022-09-27T01:33:46.396Z,10.96
2022-09-27T01:37:25.351Z,10.95
2022-09-27T01:40:06.774Z,10.99
2022-09-27T02:06:04.460Z,10.77
2022-09-27T02:09:15.169Z,10.79
2022-09-27T02:12:22.297Z,10.78
2022-09-27T02:15:18.222Z,10.68
2022-09-27T02:18:16.558Z,10.60
2022-09-27T02:20:58.733Z,10.54
2022-09-27T02:23:58.103Z,10.45
2022-09-27T02:26:40.336Z,10.45
2022-09-27T02:29:17.123Z,10.45
2022-09-27T02:32:04.540Z,10.40
2022-09-27T02:34:40.052Z,10.34
2022-09-27T02:37:15.908Z,10.28
2022-09-27T02:39:50.505Z,10.22
2022-09-27T02:42:38.435Z,10.15
2022-09-27T02:45:18.730Z,10.10
2022-09-27T02:48:03.819Z,10.06
2022-09-27T02:50:58.925Z,9.95
2022-09-27T02:53:56.412Z,9.91
2022-09-27T02:57:18.602Z,9.87
2022-09-27T03:00:41.802Z,9.79
2022-09-27T03:03:57.454Z,9.74
2022-09-27T03:06:32.359Z,9.70
2022-09-27T03:09:16.143Z,9.66
2022-09-27T03:11:54.817Z,9.62
2022-09-27T03:14:39.367Z,9.59
2022-09-27T03:17:33.038Z,9.53
2022-09-27T03:20:30.300Z,9.45
2022-09-27T03:23:20.376Z,9.40
2022-09-27T03:26:13.182Z,9.34
2022-09-27T03:28:53.375Z,9.28
2022-09-27T03:31:44.495Z,9.22
2022-09-27T03:34:58.532Z,9.16
2022-09-27T03:37:38.462Z,9.06
2022-09-27T03:40:13.842Z,9.04
2022-09-27T03:42:49.793Z,9.00
2022-09-27T03:45:33.055Z,8.94
2022-09-27T03:48:11.344Z,8.90
2022-09-27T03:50:45.089Z,8.85
2022-09-27T03:53:22.856Z,8.74
2022-09-27T03:56:01.896Z,8.73
2022-09-27T03:58:44.556Z,8.70
2022-09-27T04:01:26.308Z,8.65
2022-09-27T04:04:10.252Z,8.62
2022-09-27T04:06:52.397Z,8.74
2022-09-27T04:09:43.907Z,8.73
2022-09-27T04:12:17.789Z,8.68
2022-09-27T04:14:59.450Z,8.66
2022-09-27T04:17:56.520Z,8.66
2022-09-27T04:20:46.661Z,8.70
2022-09-27T04:23:27.631Z,8.71
2022-09-27T04:26:07.887Z,8.74
2022-09-27T04:29:06.847Z,8.83
2022-09-27T04:32:03.287Z,8.93
2022-09-27T04:35:14.678Z,8.96
2022-09-27T04:37:51.098Z,8.99
2022-09-27T04:40:33.239Z,9.03
2022-09-27T04:43:06.014Z,9.07
2022-09-27T04:45:55.343Z,9.13
2022-09-27T04:48:37.858Z,9.25
2022-09-27T04:51:15.860Z,9.38
2022-09-27T04:53:48.804Z,9.43
2022-09-27T04:56:21.267Z,9.43
2022-09-27T04:59:00.748Z,9.49
2022-09-27T05:01:36.786Z,9.55
2022-09-27T05:04:34.700Z,9.62
2022-09-27T05:07:10.616Z,9.73
2022-09-27T05:09:58.836Z,9.74
2022-09-27T05:12:37.324Z,9.83
2022-09-27T05:18:39.199Z,9.92
2022-09-27T05:21:58.533Z,10.06
2022-09-27T05:24:36.306Z,10.14
2022-09-27T05:27:23.540Z,10.12
2022-09-27T05:30:03.252Z,10.15
2022-09-27T05:32:56.182Z,10.30
2022-09-27T05:35:42.051Z,10.28
2022-09-27T05:38:24.398Z,10.41
2022-09-27T05:41:10.820Z,10.57
2022-09-27T05:43:47.450Z,10.62
2022-09-27T05:46:28.342Z,10.73
2022-09-27T05:49:12.181Z,10.75
2022-09-27T05:51:52.890Z,10.81
2022-09-27T05:54:30.116Z,10.83
2022-09-27T05:57:09.561Z,10.95
2022-09-27T06:02:53.057Z,11.13
2022-09-27T06:05:50.479Z,11.13
2022-09-27T06:08:55.891Z,11.20
2022-09-27T06:11:31.964Z,11.22
2022-09-27T06:14:19.289Z,11.26
2022-09-27T06:17:03.978Z,11.43
2022-09-27T06:19:41.014Z,11.32
2022-09-27T06:22:25.495Z,11.43
2022-09-27T06:25:13.263Z,11.38
2022-09-27T06:27:57.159Z,11.40
2022-09-27T06:30:47.174Z,11.46
2022-09-27T06:33:44.517Z,11.32
2022-09-27T06:36:18.134Z,11.21
2022-09-27T06:38:54.124Z,11.25
2022-09-27T06:41:39.312Z,11.18
2022-09-27T06:44:21.301Z,11.29
2022-09-27T06:47:15.505Z,11.37
2022-09-27T06:50:19.682Z,11.47
2022-09-27T06:52:54.417Z,11.59
2022-09-27T06:55:32.352Z,11.61
2022-09-27T06:58:23.664Z,11.66
2022-09-27T07:01:16.696Z,11.81
2022-09-27T07:04:05.081Z,12.00
2022-09-27T07:06:51.776Z,11.99
2022-09-27T07:09:43.880Z,12.08
2022-09-27T07:12:24.354Z,12.11
2022-09-27T07:15:00.237Z,12.30
2022-09-27T07:17:39.583Z,12.30
2022-09-27T07:20:14.993Z,12.35
2022-09-27T07:22:50.463Z,12.46
2022-09-27T07:25:28.852Z,12.41
2022-09-27T07:28:09.490Z,12.53
2022-09-27T07:30:48.309Z,12.47
2022-09-27T07:33:19.254Z,12.55
2022-09-27T07:35:52.039Z,12.70
2022-09-27T07:38:37.386Z,12.59
2022-09-27T07:41:19.924Z,12.74
2022-09-27T07:44:06.617Z,12.84
2022-09-27T07:46:46.943Z,13.05
2022-09-27T07:49:33.057Z,13.11
2022-09-27T07:52:40.148Z,13.18
2022-09-27T07:55:26.293Z,13.35
2022-09-27T07:58:15.248Z,13.57
2022-09-27T08:00:51.125Z,13.28
2022-09-27T08:03:29.662Z,13.51
2022-09-27T08:06:08.628Z,13.72
2022-09-27T08:08:39.685Z,13.55
2022-09-27T08:11:26.432Z,13.53
2022-09-27T08:14:02.695Z,13.89
2022-09-27T08:16:58.608Z,14.07
2022-09-27T08:19:45.244Z,14.14
2022-09-27T08:22:50.208Z,14.02
2022-09-27T08:25:36.979Z,14.16
2022-09-27T08:28:34.996Z,14.31
2022-09-27T08:31:28.425Z,14.49
2022-09-27T08:34:05.392Z,14.38
2022-09-27T08:36:37.677Z,14.45
2022-09-27T08:39:15.819Z,14.40
2022-09-27T08:42:20.468Z,14.25
2022-09-27T08:45:12.064Z,14.42
2022-09-27T08:47:49.212Z,14.31
2022-09-27T08:51:05.842Z,14.42
2022-09-27T08:53:55.464Z,14.56
2022-09-27T08:56:37.138Z,14.67
2022-09-27T08:59:26.754Z,14.90
2022-09-27T09:02:07.955Z,14.75
2022-09-27T09:04:59.346Z,14.83
2022-09-27T09:08:07.513Z,14.80
2022-09-27T09:11:40.592Z,14.66
2022-09-27T09:14:33.362Z,14.65
2022-09-27T09:17:40.579Z,14.73
2022-09-27T09:20:58.586Z,14.60
2022-09-27T09:23:54.585Z,14.75
2022-09-27T09:26:57.295Z,14.90
2022-09-27T09:32:44.833Z,15.11
2022-09-27T09:35:21.621Z,15.10
2022-09-27T09:38:20.049Z,14.94
2022-09-27T09:41:09.388Z,14.82
2022-09-27T09:43:52.211Z,14.79
2022-09-27T09:46:48.151Z,14.77
2022-09-27T09:49:23.088Z,14.53
2022-09-27T09:52:09.019Z,14.44
2022-09-27T09:55:04.087Z,14.34
2022-09-27T09:57:57.667Z,14.29
2022-09-27T10:00:41.452Z,14.29
2022-09-27T10:03:17.655Z,14.25
2022-09-27T10:05:52.575Z,14.43
2022-09-27T10:08:42.204Z,14.41
2022-09-27T10:11:48.756Z,14.45
2022-09-27T10:14:44.517Z,14.42
2022-09-27T10:17:22.374Z,14.19
2022-09-27T10:20:05.416Z,14.06
2022-09-27T10:22:57.446Z,14.15
2022-09-27T10:26:06.425Z,14.19
2022-09-27T10:28:57.027Z,14.16
2022-09-27T10:31:50.463Z,14.18
2022-09-27T10:34:52.669Z,14.22
2022-09-27T10:37:30.950Z,14.21
2022-09-27T10:40:35.499Z,14.26
2022-09-27T10:43:36.662Z,14.26
2022-09-27T10:46:37.557Z,14.51
2022-09-27T10:49:40.316Z,14.36
2022-09-27T10:52:43.787Z,14.30
2022-09-27T10:55:45.542Z,14.41
2022-09-27T10:58:38.920Z,14.41
2022-09-27T11:01:20.237Z,14.31
2022-09-27T11:04:35.952Z,14.26
2022-09-27T11:07:24.194Z,14.39
2022-09-27T11:10:31.154Z,14.19
2022-09-27T11:13:32.279Z,14.37
2022-09-27T11:17:12.578Z,14.24
2022-09-27T11:20:17.458Z,14.19
2022-09-27T11:22:57.323Z,14.33
2022-09-27T11:25:37.820Z,14.43
2022-09-27T11:28:12.785Z,14.43
2022-09-27T11:31:09.225Z,14.46
2022-09-27T11:34:11.714Z,14.46
2022-09-27T11:37:01.482Z,14.56
2022-09-27T11:40:06.759Z,14.62
2022-09-27T11:42:46.877Z,14.62
2022-09-27T11:46:10.746Z,14.52
2022-09-27T11:49:29.095Z,14.65
2022-09-27T11:52:43.433Z,14.72
2022-09-27T11:55:55.935Z,14.96
2022-09-27T11:59:10.701Z,15.25
2022-09-27T12:02:17.709Z,15.58
2022-09-27T12:05:01.537Z,15.56
2022-09-27T12:10:51.094Z,15.53
2022-09-27T12:13:56.408Z,15.66
2022-09-27T12:16:31.056Z,15.47
2022-09-27T12:19:23.626Z,15.65
2022-09-27T12:22:07.522Z,15.52
2022-09-27T12:24:54.981Z,15.55
2022-09-27T12:28:15.697Z,15.83
2022-09-27T12:31:24.439Z,15.82
2022-09-27T12:34:23.584Z,16.00
2022-09-27T12:37:13.388Z,16.25
2022-09-27T12:39:54.545Z,16.37
2022-09-27T12:43:16.475Z,16.39
2022-09-27T12:46:37.328Z,16.40
2022-09-27T12:49:41.593Z,16.18
2022-09-27T12:52:53.053Z,16.09
2022-09-27T12:56:14.094Z,16.26
2022-09-27T12:59:26.664Z,16.19
2022-09-27T13:02:39.265Z,16.03
2022-09-27T13:05:46.262Z,15.71
2022-09-27T13:09:01.847Z,15.87
2022-09-27T13:12:00.543Z,16.24
2022-09-27T13:14:55.901Z,16.19
2022-09-27T13:17:48.332Z,16.20
2022-09-27T13:21:03.595Z,16.05
2022-09-27T13:24:04.968Z,15.92
2022-09-27T13:27:34.997Z,15.68
2022-09-27T13:30:12.773Z,15.37
2022-09-27T13:33:14.162Z,15.32
2022-09-27T13:36:29.844Z,15.51
2022-09-27T13:42:48.155Z,15.31
2022-09-27T13:45:37.953Z,15.31
2022-09-27T13:48:45.057Z,15.34
2022-09-27T13:55:02.809Z,15.22
2022-09-27T13:58:14.872Z,15.18
2022-09-27T14:01:02.189Z,15.25
2022-09-27T14:04:07.755Z,15.16
2022-09-27T14:06:53.680Z,15.28
2022-09-27T14:09:54.683Z,15.07
2022-09-27T14:12:53.366Z,14.71
2022-09-27T14:15:54.474Z,14.61
2022-09-27T14:18:58.347Z,14.76
2022-09-27T14:22:00.144Z,14.67
2022-09-27T14:25:26.419Z,14.64
2022-09-27T14:28:32.296Z,14.73
2022-09-27T14:31:40.794Z,14.74
2022-09-27T14:34:27.985Z,14.83
2022-09-27T14:37:26.595Z,14.67
2022-09-27T14:40:24.585Z,14.43
2022-09-27T14:43:22.600Z,13.99
2022-09-27T14:46:05.749Z,13.67
2022-09-27T14:48:43.430Z,13.63
2022-09-27T14:51:14.555Z,13.55
2022-09-27T14:54:05.504Z,13.41
2022-09-27T14:56:49.044Z,13.21
2022-09-27T14:59:51.184Z,13.04
2022-09-27T15:02:27.602Z,12.97
2022-09-27T15:05:18.886Z,13.03
2022-09-27T15:08:07.130Z,12.95
2022-09-27T15:10:39.754Z,12.92
2022-09-27T15:13:29.982Z,13.15
2022-09-27T15:19:21.266Z,13.14
2022-09-27T15:22:25.379Z,13.07
2022-09-27T15:25:19.895Z,13.20
2022-09-27T15:28:13.574Z,13.34
2022-09-27T15:30:58.364Z,13.35
2022-09-27T15:33:58.197Z,13.67
2022-09-27T15:37:06.632Z,14.34
2022-09-27T15:39:49.619Z,15.54
2022-09-27T15:43:00.878Z,16.48
2022-09-27T15:46:01.245Z,15.38
2022-09-27T15:51:59.496Z,13.95
2022-09-27T15:54:57.044Z,13.36
2022-09-27T15:58:01.856Z,13.15
2022-09-27T16:00:34.373Z,12.91
2022-09-27T16:03:32.354Z,12.60
2022-09-27T16:06:07.174Z,12.52
2022-09-27T16:11:34.685Z,12.13
2022-09-27T16:14:23.299Z,11.99
2022-09-27T16:17:05.345Z,11.97
2022-09-27T16:19:45.473Z,11.94
2022-09-27T16:22:26.122Z,11.79
2022-09-27T16:24:56.369Z,11.64
2022-09-27T16:27:33.616Z,11.38
2022-09-27T16:30:08.184Z,11.26
2022-09-27T16:32:57.838Z,11.02
2022-09-27T16:35:37.244Z,11.03
2022-09-27T16:38:21.519Z,11.01
2022-09-27T16:41:03.999Z,10.97
2022-09-27T16:43:39.500Z,11.02
2022-09-27T16:46:21.895Z,11.00
2022-09-27T16:49:02.632Z,10.88
2022-09-27T16:51:56.325Z,10.95
2022-09-27T16:54:34.021Z,11.01
2022-09-27T16:57:22.962Z,11.14
2022-09-27T17:00:06.276Z,11.20
2022-09-27T17:02:42.839Z,11.24
2022-09-27T17:05:21.077Z,11.23
2022-09-27T17:08:10.265Z,11.21
2022-09-27T17:10:45.351Z,11.20
2022-09-27T17:13:28.213Z,11.08
2022-09-27T17:16:07.918Z,11.13
2022-09-27T17:18:48.338Z,11.08
2022-09-27T17:21:27.735Z,11.02
2022-09-27T17:24:21.511Z,10.97
2022-09-27T17:27:00.259Z,11.04
2022-09-27T17:29:35.243Z,10.94
2022-09-27T17:32:09.099Z,10.88
2022-09-27T17:34:44.359Z,10.86
2022-09-27T17:37:17.151Z,10.83
2022-09-27T17:40:04.688Z,10.80
2022-09-27T17:42:45.015Z,10.87
2022-09-27T17:45:27.412Z,10.93
2022-09-27T17:48:20.790Z,11.02
2022-09-27T17:50:55.304Z,11.10
2022-09-27T17:53:35.485Z,11.10
2022-09-27T17:56:22.832Z,11.11
2022-09-27T17:59:10.662Z,11.13
2022-09-27T18:01:43.529Z,11.15
2022-09-27T18:04:17.806Z,11.13
2022-09-27T18:06:59.491Z,11.10
2022-09-27T18:09:52.215Z,11.08
2022-09-27T18:12:33.136Z,11.01
2022-09-27T18:15:06.251Z,11.00
2022-09-27T18:17:55.761Z,11.02
2022-09-27T18:20:37.023Z,11.01
2022-09-27T18:23:17.173Z,10.90
2022-09-27T18:26:07.653Z,10.77
2022-09-27T18:28:53.911Z,10.88
2022-09-27T18:31:33.141Z,10.77
2022-09-27T18:34:12.955Z,10.76
2022-09-27T18:36:48.496Z,10.64
2022-09-27T18:39:44.568Z,10.60
2022-09-27T18:42:26.272Z,10.71
2022-09-27T18:45:00.084Z,10.82
2022-09-27T18:47:41.379Z,10.85
2022-09-27T18:50:19.399Z,10.84
2022-09-27T18:53:07.665Z,10.97
2022-09-27T18:55:46.119Z,10.84
2022-09-27T18:58:21.630Z,10.85
2022-09-27T19:01:15.767Z,10.80
2022-09-27T19:03:54.017Z,10.80
2022-09-27T19:06:34.934Z,10.83
2022-09-27T19:09:25.791Z,10.81
2022-09-27T19:12:02.139Z,10.84
2022-09-27T19:14:41.421Z,10.89
2022-09-27T19:17:16.595Z,10.89
2022-09-27T19:19:55.185Z,10.93
2022-09-27T19:22:38.372Z,10.93
2022-09-27T19:25:13.866Z,10.94
2022-09-27T19:27:51.968Z,10.93
2022-09-27T19:33:15.657Z,10.89
2022-09-27T19:35:49.703Z,10.97
2022-09-27T19:38:21.746Z,11.04
2022-09-27T19:41:07.023Z,10.93
2022-09-27T19:43:47.098Z,10.96
2022-09-27T19:46:25.997Z,11.01
2022-09-27T19:49:09.824Z,11.07
2022-09-27T19:52:01.103Z,11.04
2022-09-27T19:54:42.655Z,11.00
2022-09-27T19:57:18.641Z,11.01
2022-09-27T19:59:56.659Z,10.93
2022-09-27T20:02:33.680Z,10.90
2022-09-27T20:05:14.162Z,10.83
2022-09-27T20:07:55.872Z,10.81
2022-09-27T20:10:36.886Z,10.81
2022-09-27T20:13:30.187Z,10.82
2022-09-27T20:16:12.936Z,10.86
2022-09-27T20:18:54.772Z,10.89
2022-09-27T20:21:36.841Z,10.86
2022-09-27T20:24:24.097Z,10.93
2022-09-27T20:27:03.084Z,10.91
2022-09-27T20:29:35.584Z,10.97
2022-09-27T20:32:27.399Z,10.92
2022-09-27T20:35:21.237Z,10.85
2022-09-27T20:38:01.738Z,10.89
2022-09-27T20:40:38.133Z,10.94
2022-09-27T20:43:18.936Z,10.90
2022-09-27T20:46:02.434Z,10.88
2022-09-27T20:48:49.647Z,10.88
2022-09-27T20:51:30.171Z,10.82
2022-09-27T20:54:04.312Z,10.75
2022-09-27T20:56:43.874Z,10.70
2022-09-27T20:59:23.214Z,10.64
2022-09-27T21:01:58.937Z,10.62
2022-09-27T21:04:34.397Z,10.59
2022-09-27T21:07:09.474Z,10.56
2022-09-27T21:09:45.728Z,10.45
2022-09-27T21:12:27.373Z,10.50
2022-09-27T21:15:06.455Z,10.57
2022-09-27T21:17:52.792Z,10.65
2022-09-27T21:20:31.324Z,10.64
2022-09-27T21:23:18.173Z,10.68
2022-09-27T21:26:08.717Z,10.58
2022-09-27T21:28:48.043Z,10.68
2022-09-27T21:31:34.291Z,10.78
2022-09-27T21:34:07.890Z,10.82
2022-09-27T21:36:50.892Z,10.94
2022-09-27T21:39:30.029Z,10.87
2022-09-27T21:42:07.294Z,10.84
2022-09-27T21:44:45.455Z,10.78
2022-09-27T21:47:28.529Z,10.76
2022-09-27T21:49:57.206Z,10.76
2022-09-27T21:52:40.396Z,10.75
2022-09-27T21:55:16.255Z,10.72
2022-09-27T21:58:01.742Z,10.63
2022-09-27T22:00:28.794Z,10.65
2022-09-27T22:03:30.976Z,10.68
2022-09-27T22:06:12.467Z,10.59
2022-09-27T22:08:49.221Z,10.50
2022-09-27T22:11:33.038Z,10.47
2022-09-27T22:14:14.694Z,10.40
2022-09-27T22:16:50.603Z,10.36
2022-09-27T22:19:28.961Z,10.31
2022-09-27T22:22:09.730Z,10.30
2022-09-27T22:24:44.982Z,10.25
2022-09-27T22:27:25.996Z,10.20
2022-09-27T22:30:03.617Z,9.99
2022-09-27T22:32:38.995Z,10.04
2022-09-27T22:35:16.079Z,10.13
2022-09-27T22:37:44.243Z,10.10
2022-09-27T22:40:27.574Z,10.07
2022-09-27T22:43:06.733Z,10.06
2022-09-27T22:45:34.055Z,10.02
2022-09-27T22:48:07.570Z,9.91
2022-09-27T22:50:54.338Z,9.85
2022-09-27T22:53:35.275Z,9.82
2022-09-27T22:56:16.666Z,9.76
2022-09-27T22:59:01.930Z,9.68
2022-09-27T23:01:37.404Z,9.71
2022-09-27T23:04:15.547Z,9.61
2022-09-27T23:06:49.691Z,9.54
2022-09-27T23:09:33.039Z,9.52
2022-09-27T23:12:13.812Z,9.59
2022-09-27T23:14:51.994Z,9.53
2022-09-27T23:17:27.598Z,9.54
2022-09-27T23:20:06.344Z,9.31
2022-09-27T23:22:41.686Z,9.34
2022-09-27T23:25:14.297Z,9.32
2022-09-27T23:27:56.188Z,9.10
2022-09-27T23:30:31.936Z,9.08
2022-09-27T23:33:16.238Z,8.89
2022-09-27T23:35:53.642Z,8.84
2022-09-27T23:38:45.106Z,8.77
2022-09-27T23:41:20.740Z,8.76
2022-09-27T23:43:54.375Z,8.68
2022-09-27T23:46:29.730Z,8.57
2022-09-27T23:49:06.136Z,8.51
2022-09-27T23:51:47.181Z,8.41
2022-09-27T23:54:19.883Z,8.37
2022-09-27T23:56:55.326Z,8.29
2022-09-27T23:59:39.442Z,8.25
